Time;durP1;ratioP1;P1;durP2;ratioP2;P2;SDS_P1;SDS_P2;PMS_P1;PMS_P2;Temp;Humidity;BMP_temperature;BMP_pressure;BME280_temperature;BME280_humidity;BME280_pressure;Samples;Min_cycle;Max_cycle;Signal;HPM_P1;HPM_P2
2023/09/09 00:00:11;;;;;;;14.73;10.63;;;;;;;15.25;100.00;96162.47;1027285;28;20023;-74
2023/09/09 00:00:42;;;;;;;15.25;10.75;;;;;;;15.20;100.00;96157.25;1029727;28;20026;-75
2023/09/09 00:01:12;;;;;;;15.38;11.50;;;;;;;15.22;100.00;96158.53;1030801;28;20499;-77
2023/09/09 00:01:44;;;;;;;22.67;11.68;;;;;;;15.16;100.00;96151.75;1029698;28;20030;-75
2023/09/09 00:02:14;;;;;;;19.77;10.85;;;;;;;15.22;100.00;96161.16;1018868;29;20020;-74
2023/09/09 00:02:45;;;;;;;16.67;11.70;;;;;;;15.23;100.00;96156.69;1024055;28;20408;-75
2023/09/09 00:03:15;;;;;;;14.15;10.60;;;;;;;15.18;100.00;96159.38;1026843;28;20424;-74
2023/09/09 00:03:46;;;;;;;16.13;11.07;;;;;;;15.21;100.00;96164.88;1030851;28;20026;-75
2023/09/09 00:04:17;;;;;;;16.58;11.63;;;;;;;15.20;100.00;96165.97;1033282;28;20506;-75
2023/09/09 00:04:47;;;;;;;17.83;11.32;;;;;;;15.20;100.00;96162.53;1039251;28;20024;-75
2023/09/09 00:05:18;;;;;;;13.63;10.52;;;;;;;15.16;100.00;96161.53;1035087;28;20029;-75
2023/09/09 00:05:49;;;;;;;18.20;11.02;;;;;;;15.14;100.00;96159.16;1041703;28;20024;-74
2023/09/09 00:06:19;;;;;;;16.05;10.63;;;;;;;15.17;100.00;96161.25;1036753;28;20024;-74
2023/09/09 00:06:50;;;;;;;15.23;11.10;;;;;;;15.16;100.00;96164.16;1030839;28;20022;-75
2023/09/09 00:07:21;;;;;;;14.50;10.43;;;;;;;15.13;100.00;96162.88;1026892;28;20054;-74
2023/09/09 00:07:52;;;;;;;14.50;10.32;;;;;;;15.15;100.00;96163.38;1038975;28;20017;-75
2023/09/09 00:08:22;;;;;;;19.75;11.52;;;;;;;15.14;100.00;96161.78;1038847;28;20029;-75
2023/09/09 00:08:52;;;;;;;17.73;10.73;;;;;;;15.12;100.00;96161.28;1031092;28;20144;-76
2023/09/09 00:09:23;;;;;;;13.10;10.27;;;;;;;15.13;100.00;96162.09;1026823;28;20499;-75
2023/09/09 00:09:53;;;;;;;16.02;11.27;;;;;;;15.10;100.00;96158.16;1030308;28;20026;-75
2023/09/09 00:10:24;;;;;;;15.77;11.63;;;;;;;15.11;100.00;96165.00;1030901;28;20014;-74
2023/09/09 00:10:55;;;;;;;18.10;10.57;;;;;;;15.08;100.00;96149.69;1034999;28;20025;-75
2023/09/09 00:11:25;;;;;;;15.75;11.07;;;;;;;15.08;100.00;96161.06;1034922;28;20076;-75
2023/09/09 00:11:56;;;;;;;15.65;10.23;;;;;;;15.09;100.00;96156.56;1030975;28;20064;-75
2023/09/09 00:12:27;;;;;;;14.15;10.80;;;;;;;15.08;100.00;96160.25;1026849;28;20520;-75
2023/09/09 00:12:57;;;;;;;13.73;9.40;;;;;;;15.01;100.00;96149.25;1027118;28;20716;-77
2023/09/09 00:13:27;;;;;;;16.15;10.77;;;;;;;15.06;100.00;96157.91;1034267;28;20033;-74
2023/09/09 00:13:58;;;;;;;18.00;11.18;;;;;;;15.05;100.00;96155.53;1026504;28;20035;-75
2023/09/09 00:14:29;;;;;;;15.48;10.88;;;;;;;15.06;100.00;96151.84;1027007;28;20171;-74
2023/09/09 00:15:03;;;;;;;15.85;11.05;;;;;;;15.08;100.00;96161.06;1023574;28;20035;-75
2023/09/09 00:15:33;;;;;;;15.38;11.35;;;;;;;15.07;100.00;96153.41;1024375;28;20032;-75
2023/09/09 00:16:04;;;;;;;18.73;10.43;;;;;;;15.08;100.00;96157.63;1036522;28;20438;-74
2023/09/09 00:16:35;;;;;;;14.77;10.90;;;;;;;15.06;100.00;96154.50;1039430;28;20026;-74
2023/09/09 00:17:06;;;;;;;14.30;11.05;;;;;;;15.06;100.00;96159.78;1034873;28;20026;-75
2023/09/09 00:17:36;;;;;;;14.65;10.95;;;;;;;15.03;100.00;96153.19;1030436;28;20455;-74
2023/09/09 00:18:07;;;;;;;14.40;10.85;;;;;;;15.03;100.00;96153.19;1030538;28;20033;-75
2023/09/09 00:18:38;;;;;;;17.67;10.32;;;;;;;15.04;100.00;96153.97;1030993;28;20432;-76
2023/09/09 00:19:08;;;;;;;17.55;10.88;;;;;;;14.95;100.00;96139.78;1034787;28;20037;-74
2023/09/09 00:19:39;;;;;;;14.02;10.85;;;;;;;15.00;100.00;96150.31;1032861;28;20732;-74
2023/09/09 00:20:11;;;;;;;18.00;11.50;;;;;;;14.94;100.00;96144.28;1030829;28;20022;-74
2023/09/09 00:20:41;;;;;;;15.77;10.63;;;;;;;14.98;100.00;96157.72;1027889;28;20851;-75
2023/09/09 00:21:14;;;;;;;16.58;11.10;;;;;;;14.98;100.00;96149.81;1026705;28;20022;-75
2023/09/09 00:21:45;;;;;;;14.98;10.65;;;;;;;14.97;100.00;96142.94;1030707;28;20129;-75
2023/09/09 00:22:17;;;;;;;15.18;9.93;;;;;;;14.90;100.00;96131.94;1027802;28;20082;-75
2023/09/09 00:22:47;;;;;;;16.80;11.60;;;;;;;14.98;100.00;96145.31;1027764;28;20061;-75
2023/09/09 00:23:18;;;;;;;15.80;11.10;;;;;;;14.95;100.00;96142.44;1033209;28;20507;-75
2023/09/09 00:23:48;;;;;;;13.63;10.48;;;;;;;14.97;100.00;96142.94;1026820;28;20432;-75
2023/09/09 00:24:19;;;;;;;17.30;11.40;;;;;;;14.96;100.00;96144.81;1026893;28;20026;-75
2023/09/09 00:24:49;;;;;;;15.75;10.95;;;;;;;14.95;100.00;96140.56;1029827;28;20029;-75
2023/09/09 00:25:19;;;;;;;14.20;10.93;;;;;;;14.90;100.00;96142.50;1030946;28;20867;-75
2023/09/09 00:25:50;;;;;;;16.08;11.45;;;;;;;14.94;100.00;96139.00;1035024;28;20096;-72
2023/09/09 00:26:20;;;;;;;15.43;10.73;;;;;;;14.92;100.00;96143.00;1039028;28;20855;-74
2023/09/09 00:26:51;;;;;;;15.35;10.20;;;;;;;14.92;100.00;96143.00;1039700;28;20014;-74
2023/09/09 00:27:21;;;;;;;18.35;11.32;;;;;;;14.90;100.00;96145.13;1035118;28;20026;-78
2023/09/09 00:27:53;;;;;;;16.60;10.57;;;;;;;14.92;100.00;96148.28;1030792;28;20435;-75
2023/09/09 00:28:24;;;;;;;16.02;10.52;;;;;;;14.84;100.00;96142.53;1027206;28;20035;-75
2023/09/09 00:28:54;;;;;;;19.05;11.48;;;;;;;14.85;100.00;96145.97;1038317;28;20025;-76
2023/09/09 00:29:25;;;;;;;13.27;10.57;;;;;;;14.86;100.00;96152.84;1027158;28;20031;-75
2023/09/09 00:29:55;;;;;;;15.15;10.60;;;;;;;14.87;100.00;96146.47;1021311;28;20038;-76
2023/09/09 00:30:25;;;;;;;16.40;11.25;;;;;;;14.80;100.00;96140.75;1026969;28;20040;-76
2023/09/09 00:30:56;;;;;;;17.95;11.35;;;;;;;14.86;100.00;96152.84;1030691;28;20023;-76
2023/09/09 00:31:26;;;;;;;14.32;10.10;;;;;;;14.85;100.00;96149.41;1026887;28;20037;-75
2023/09/09 00:31:57;;;;;;;14.00;10.48;;;;;;;14.85;100.00;96145.97;1029646;28;20147;-75
2023/09/09 00:32:27;;;;;;;14.23;10.23;;;;;;;14.84;100.00;96147.81;1030620;28;20376;-75
2023/09/09 00:32:58;;;;;;;26.98;11.32;;;;;;;14.83;100.00;96156.81;1030233;28;20030;-75
2023/09/09 00:33:29;;;;;;;17.02;11.18;;;;;;;14.82;100.00;96152.63;1030281;28;20023;-75
2023/09/09 00:33:59;;;;;;;15.43;10.60;;;;;;;14.80;100.00;96154.72;1034643;28;20033;-75
2023/09/09 00:34:30;;;;;;;19.15;11.90;;;;;;;14.79;100.00;96155.81;1034766;28;20495;-75
2023/09/09 00:35:01;;;;;;;19.13;11.15;;;;;;;14.76;100.00;96143.16;1038992;28;20506;-74
2023/09/09 00:35:32;;;;;;;31.05;13.48;;;;;;;14.77;100.00;96150.00;1039256;28;20029;-76
2023/09/09 00:36:03;;;;;;;18.55;10.68;;;;;;;14.79;100.00;96150.53;1030497;28;20022;-75
2023/09/09 00:36:33;;;;;;;26.80;11.98;;;;;;;14.80;100.00;96149.44;1026566;28;20023;-75
2023/09/09 00:37:04;;;;;;;20.02;11.60;;;;;;;14.80;100.00;96152.09;1026841;28;20034;-75
2023/09/09 00:37:34;;;;;;;17.95;10.73;;;;;;;14.79;100.00;96158.44;1026995;28;20035;-75
2023/09/09 00:38:06;;;;;;;20.33;11.32;;;;;;;14.80;100.00;96160.00;1030912;28;20022;-75
2023/09/09 00:38:37;;;;;;;19.33;10.90;;;;;;;14.81;100.00;96151.00;1030837;28;20116;-76
2023/09/09 00:39:08;;;;;;;15.20;11.68;;;;;;;14.79;100.00;96147.88;1027152;28;20026;-76
2023/09/09 00:39:38;;;;;;;20.48;11.00;;;;;;;14.80;100.00;96160.00;1026532;28;20061;-76
2023/09/09 00:40:10;;;;;;;16.08;10.77;;;;;;;14.78;100.00;96156.84;1030777;28;20543;-74
2023/09/09 00:40:42;;;;;;;15.15;10.90;;;;;;;14.76;100.00;96145.78;1031038;28;20031;-75
2023/09/09 00:41:17;;;;;;;16.58;11.55;;;;;;;14.78;100.00;96145.50;1031348;28;20058;-75
2023/09/09 00:41:47;;;;;;;17.63;11.27;;;;;;;14.77;100.00;96152.66;1026819;28;20030;-75
2023/09/09 00:42:18;;;;;;;14.77;10.32;;;;;;;14.77;100.00;96155.28;1026737;28;20023;-75
2023/09/09 00:42:48;;;;;;;14.98;10.82;;;;;;;14.74;100.00;96155.84;1035251;28;20017;-74
2023/09/09 00:43:19;;;;;;;15.20;10.50;;;;;;;14.73;100.00;96153.50;1030963;28;20033;-75
2023/09/09 00:43:49;;;;;;;16.02;10.38;;;;;;;14.72;100.00;96158.00;1034625;28;20018;-75
2023/09/09 00:44:20;;;;;;;19.15;11.05;;;;;;;14.59;100.00;96132.22;1030859;28;20023;-75
2023/09/09 00:44:50;;;;;;;16.02;10.75;;;;;;;14.70;100.00;96152.19;1034617;28;20030;-75
2023/09/09 00:45:20;;;;;;;15.10;10.00;;;;;;;14.70;100.00;96157.47;1034598;28;20088;-74
2023/09/09 00:45:51;;;;;;;13.95;10.25;;;;;;;14.63;100.00;96141.16;1034750;28;20036;-76
2023/09/09 00:46:21;;;;;;;16.60;10.63;;;;;;;14.66;100.00;96148.53;1030942;28;20018;-75
2023/09/09 00:46:52;;;;;;;14.73;10.43;;;;;;;14.66;100.00;96150.38;1022292;28;20038;-76
2023/09/09 00:47:24;;;;;;;15.93;10.48;;;;;;;14.64;100.00;96147.22;1022628;29;20548;-76
2023/09/09 00:47:55;;;;;;;15.60;11.05;;;;;;;14.65;100.00;96144.28;1026317;28;20038;-74
2023/09/09 00:48:26;;;;;;;13.93;11.13;;;;;;;14.67;100.00;96155.38;1022735;29;20051;-75
2023/09/09 00:48:56;;;;;;;15.15;11.20;;;;;;;14.63;100.00;96145.66;1027455;28;20023;-75
2023/09/09 00:49:27;;;;;;;15.20;11.63;;;;;;;14.65;100.00;96146.94;1030639;28;20245;-75
2023/09/09 00:49:58;;;;;;;14.85;11.15;;;;;;;14.68;100.00;96154.31;1033165;28;20037;-75
2023/09/09 00:50:28;;;;;;;15.00;10.95;;;;;;;14.60;100.00;96141.72;1033379;28;20022;-75
2023/09/09 00:50:59;;;;;;;17.67;11.52;;;;;;;14.58;100.00;96138.56;1022440;29;20556;-75
2023/09/09 00:51:29;;;;;;;16.60;11.40;;;;;;;14.65;100.00;96156.72;1022781;28;20019;-75
2023/09/09 00:52:00;;;;;;;17.98;11.20;;;;;;;14.65;100.00;96146.16;1029165;28;20019;-75
2023/09/09 00:52:31;;;;;;;21.85;11.55;;;;;;;14.65;100.00;96146.16;1031063;28;20062;-75
2023/09/09 00:53:02;;;;;;;22.73;10.77;;;;;;;14.64;100.00;96153.28;1022642;28;20015;-75
2023/09/09 00:53:34;;;;;;;24.10;11.20;;;;;;;14.61;100.00;96140.63;1028127;28;20023;-75
2023/09/09 00:54:04;;;;;;;20.45;11.82;;;;;;;14.60;100.00;96145.13;1034078;28;20033;-75
2023/09/09 00:54:35;;;;;;;18.27;10.90;;;;;;;14.64;100.00;96155.16;1028406;28;20018;-75
2023/09/09 00:55:06;;;;;;;22.75;12.50;;;;;;;14.64;100.00;96149.88;1028483;28;20440;-75
2023/09/09 00:55:39;;;;;;;14.23;10.60;;;;;;;14.63;100.00;96149.09;1032724;28;20068;-74
2023/09/09 00:56:09;;;;;;;15.00;11.25;;;;;;;14.62;100.00;96147.53;1038852;28;20684;-75
2023/09/09 00:56:40;;;;;;;19.73;10.70;;;;;;;14.63;100.00;96149.09;1031599;28;20023;-75
2023/09/09 00:57:11;;;;;;;13.73;10.00;;;;;;;14.57;100.00;96142.28;1040509;28;20059;-75
2023/09/09 00:57:41;;;;;;;17.42;11.00;;;;;;;14.57;100.00;96139.63;1035694;28;20080;-74
2023/09/09 00:58:12;;;;;;;15.50;11.38;;;;;;;14.59;100.00;96142.78;1042791;28;20231;-75
2023/09/09 00:58:42;;;;;;;13.85;10.20;;;;;;;14.59;100.00;96145.44;1035101;28;20581;-76
2023/09/09 00:59:13;;;;;;;17.95;11.27;;;;;;;14.59;100.00;96153.34;1034814;28;20029;-75
2023/09/09 00:59:43;;;;;;;15.27;10.73;;;;;;;14.57;100.00;96144.91;1034307;28;20652;-74
2023/09/09 01:00:14;;;;;;;16.70;10.95;;;;;;;14.56;100.00;96148.63;1038849;28;20021;-75
2023/09/09 01:00:44;;;;;;;15.02;10.30;;;;;;;14.55;100.00;96149.66;1038644;28;20021;-74
2023/09/09 01:01:15;;;;;;;21.17;10.95;;;;;;;14.56;100.00;96148.63;1034752;28;20030;-75
2023/09/09 01:01:45;;;;;;;17.27;11.60;;;;;;;14.55;100.00;96149.66;1034606;28;20672;-75
2023/09/09 01:02:16;;;;;;;15.32;11.05;;;;;;;14.55;100.00;96147.03;1030672;28;20064;-75
2023/09/09 01:02:46;;;;;;;15.65;10.45;;;;;;;14.54;100.00;96150.75;1031933;28;20033;-76
2023/09/09 01:03:17;;;;;;;14.73;11.00;;;;;;;14.52;100.00;96143.09;1030791;28;20565;-75
2023/09/09 01:03:52;;;;;;;15.27;11.18;;;;;;;14.53;100.00;96149.19;1034744;28;20033;-75
2023/09/09 01:04:26;;;;;;;15.05;10.98;;;;;;;14.50;100.00;96147.06;1034704;28;20033;-75
2023/09/09 01:05:00;;;;;;;13.77;10.05;;;;;;;14.46;100.00;96144.19;1026675;28;20031;-75
2023/09/09 01:05:32;;;;;;;13.50;10.23;;;;;;;14.47;100.00;96144.97;1028461;28;20538;-74
2023/09/09 01:06:02;;;;;;;17.33;10.90;;;;;;;14.43;100.00;96138.66;1022499;28;20035;-75
2023/09/09 01:06:33;;;;;;;16.83;10.88;;;;;;;14.47;100.00;96140.47;1018987;29;20073;-75
2023/09/09 01:07:03;;;;;;;19.40;10.52;;;;;;;14.47;100.00;96139.69;1018839;29;20040;-75
2023/09/09 01:07:47;;;;;;;16.52;10.57;;;;;;;14.43;100.00;96138.66;1022729;29;20034;-77
2023/09/09 01:08:25;;;;;;;15.30;10.95;;;;;;;14.41;100.00;96140.78;1028662;28;20027;-75
2023/09/09 01:08:56;;;;;;;13.73;10.20;;;;;;;14.47;100.00;96145.75;1030607;28;20085;-76
2023/09/09 01:09:26;;;;;;;14.75;11.02;;;;;;;14.41;100.00;96138.94;1034905;28;20080;-76
2023/09/09 01:09:57;;;;;;;17.17;11.27;;;;;;;14.46;100.00;96132.84;1037865;28;20036;-75
2023/09/09 01:10:27;;;;;;;14.27;10.40;;;;;;;14.47;100.00;96147.59;1038828;28;20568;-75
2023/09/09 01:10:58;;;;;;;21.02;11.30;;;;;;;14.44;100.00;96140.25;1038343;28;20037;-75
2023/09/09 01:11:28;;;;;;;18.52;10.90;;;;;;;14.44;100.00;96140.25;1038512;28;20026;-75
2023/09/09 01:11:59;;;;;;;19.55;11.23;;;;;;;14.41;100.00;96138.94;1038862;28;20034;-75
2023/09/09 01:12:29;;;;;;;15.82;10.77;;;;;;;14.44;100.00;96135.75;1030625;28;20053;-74
2023/09/09 01:13:00;;;;;;;17.10;10.82;;;;;;;14.43;100.00;96128.09;1027592;28;20030;-74
2023/09/09 01:13:30;;;;;;;17.88;11.02;;;;;;;14.46;100.00;96138.91;1034915;28;20521;-75
2023/09/09 01:14:02;;;;;;;14.35;10.75;;;;;;;14.46;100.00;96138.13;1038548;28;20018;-75
2023/09/09 01:14:32;;;;;;;15.18;10.88;;;;;;;14.48;100.00;96141.25;1037261;28;20037;-74
2023/09/09 01:15:05;;;;;;;16.17;11.32;;;;;;;14.49;100.00;96132.28;1038824;28;20429;-75
2023/09/09 01:15:37;;;;;;;16.95;12.30;;;;;;;14.48;100.00;96134.13;1042537;28;20117;-75
2023/09/09 01:16:08;;;;;;;18.05;12.52;;;;;;;14.44;100.00;96129.66;1032030;28;20018;-76
2023/09/09 01:16:39;;;;;;;15.65;12.00;;;;;;;14.47;100.00;96135.19;1027401;28;20019;-76
2023/09/09 01:17:10;;;;;;;19.52;12.57;;;;;;;14.44;100.00;96130.47;1030706;28;20014;-76
2023/09/09 01:17:40;;;;;;;17.10;11.95;;;;;;;14.46;100.00;96127.56;1031453;28;20085;-76
2023/09/09 01:18:11;;;;;;;19.52;12.60;;;;;;;14.50;100.00;96139.13;1032012;28;20499;-78
2023/09/09 01:18:41;;;;;;;19.20;12.77;;;;;;;14.50;100.00;96136.50;1030538;28;20026;-74
2023/09/09 01:19:12;;;;;;;15.60;12.07;;;;;;;14.51;100.00;96140.72;1022727;29;20020;-75
2023/09/09 01:19:42;;;;;;;16.73;12.13;;;;;;;14.48;100.00;96138.63;1025935;28;20523;-75
2023/09/09 01:20:14;;;;;;;15.77;11.02;;;;;;;14.47;100.00;96135.19;1026611;28;20022;-76
2023/09/09 01:20:59;;;;;;;16.90;10.73;;;;;;;14.47;100.00;96140.47;1022525;29;20065;-75
2023/09/09 01:21:31;;;;;;;15.88;10.93;;;;;;;14.39;100.00;96133.16;1038500;28;20014;-75
2023/09/09 01:22:03;;;;;;;15.63;11.20;;;;;;;14.39;100.00;96138.44;1038696;28;20060;-74
2023/09/09 01:22:35;;;;;;;15.30;11.57;;;;;;;14.41;100.00;96143.44;1034714;28;20030;-75
2023/09/09 01:23:06;;;;;;;17.80;12.15;;;;;;;14.34;100.00;96138.47;1034647;28;20208;-76
2023/09/09 01:23:37;;;;;;;16.05;11.52;;;;;;;14.33;100.00;96131.63;1026641;28;20093;-72
2023/09/09 01:24:07;;;;;;;15.55;11.70;;;;;;;14.36;100.00;96139.00;1022626;29;20019;-72
2023/09/09 01:24:40;;;;;;;18.42;12.02;;;;;;;14.35;100.00;96138.19;1024458;28;20057;-76
2023/09/09 01:25:11;;;;;;;20.30;11.50;;;;;;;14.35;100.00;96143.47;1031931;28;20022;-75
2023/09/09 01:25:41;;;;;;;17.02;11.40;;;;;;;14.34;100.00;96138.47;1031615;28;20022;-76
2023/09/09 01:26:12;;;;;;;17.13;11.85;;;;;;;14.29;100.00;96134.03;1035158;28;20026;-74
2023/09/09 01:26:46;;;;;;;16.85;11.55;;;;;;;14.34;100.00;96135.81;1032308;28;20018;-75
2023/09/09 01:27:16;;;;;;;16.80;12.38;;;;;;;14.38;100.00;96142.94;1031380;28;20026;-74
2023/09/09 01:27:46;;;;;;;17.17;13.00;;;;;;;14.38;100.00;96144.75;1034575;28;20014;-75
2023/09/09 01:28:22;;;;;;;17.55;12.55;;;;;;;14.33;100.00;96132.41;1030669;28;20026;-75
2023/09/09 01:28:52;;;;;;;17.15;12.40;;;;;;;14.38;100.00;96131.56;1034566;28;20077;-75
2023/09/09 01:29:23;;;;;;;18.27;12.25;;;;;;;14.35;100.00;96138.19;1030550;28;20507;-75
2023/09/09 01:29:53;;;;;;;15.85;12.02;;;;;;;14.39;100.00;96141.06;1038333;28;20426;-75
2023/09/09 01:30:23;;;;;;;17.40;11.75;;;;;;;14.40;100.00;96140.00;1038056;28;20075;-76
2023/09/09 01:30:54;;;;;;;16.40;11.15;;;;;;;14.37;100.00;96145.84;1034498;28;20029;-75
2023/09/09 01:31:27;;;;;;;18.45;11.80;;;;;;;14.35;100.00;96140.03;1033068;28;20615;-75
2023/09/09 01:31:58;;;;;;;19.88;12.30;;;;;;;14.35;100.00;96142.66;1035871;28;20193;-75
2023/09/09 01:32:28;;;;;;;21.75;11.63;;;;;;;14.29;100.00;96138.50;1038935;28;20022;-75
2023/09/09 01:32:58;;;;;;;15.98;11.23;;;;;;;14.31;100.00;96145.06;1027237;28;20023;-75
2023/09/09 01:33:29;;;;;;;17.25;11.43;;;;;;;14.21;100.00;96131.97;1034672;28;20029;-75
2023/09/09 01:33:59;;;;;;;16.08;11.57;;;;;;;14.27;100.00;96141.41;1027022;28;20665;-75
2023/09/09 01:34:30;;;;;;;17.08;11.95;;;;;;;14.26;100.00;96139.84;1026874;28;20034;-75
2023/09/09 01:35:04;;;;;;;17.83;11.80;;;;;;;14.24;100.00;96141.97;1041146;28;20028;-74
2023/09/09 01:35:35;;;;;;;22.58;11.82;;;;;;;14.24;100.00;96141.97;1034856;28;20037;-74
2023/09/09 01:36:05;;;;;;;17.77;11.68;;;;;;;14.24;100.00;96141.19;1035292;28;20030;-75
2023/09/09 01:36:36;;;;;;;14.20;11.02;;;;;;;14.21;100.00;96142.50;1032735;28;20531;-74
2023/09/09 01:37:06;;;;;;;19.30;11.93;;;;;;;14.20;100.00;96135.66;1027314;28;20073;-74
2023/09/09 01:37:36;;;;;;;16.00;11.63;;;;;;;14.18;100.00;96129.88;1026619;28;20543;-76
2023/09/09 01:38:07;;;;;;;15.50;11.52;;;;;;;14.18;100.00;96137.78;1026754;28;20026;-74
2023/09/09 01:38:37;;;;;;;16.25;11.30;;;;;;;14.20;100.00;96140.94;1026699;28;20081;-75
2023/09/09 01:39:08;;;;;;;16.58;12.07;;;;;;;14.20;100.00;96146.22;1030524;28;20023;-75
2023/09/09 01:39:38;;;;;;;14.95;10.85;;;;;;;14.20;100.00;96143.59;1030129;28;20496;-75
2023/09/09 01:40:11;;;;;;;18.23;11.50;;;;;;;14.18;100.00;96137.00;1033662;28;20025;-74
2023/09/09 01:40:42;;;;;;;15.18;11.73;;;;;;;14.20;100.00;96146.22;1034521;28;20025;-76
2023/09/09 01:41:12;;;;;;;16.70;12.15;;;;;;;14.14;100.00;96134.91;1034408;28;20033;-75
2023/09/09 01:41:43;;;;;;;15.60;11.45;;;;;;;14.20;100.00;96140.94;1028669;28;20027;-75
2023/09/09 01:42:14;;;;;;;18.27;12.57;;;;;;;14.19;100.00;96141.22;1027461;28;20035;-74
2023/09/09 01:42:47;;;;;;;16.35;11.55;;;;;;;14.18;100.00;96143.06;1030630;28;20022;-74
2023/09/09 01:43:17;;;;;;;16.05;11.30;;;;;;;14.18;100.00;96147.56;1028849;28;20455;-75
2023/09/09 01:43:48;;;;;;;13.50;11.20;;;;;;;14.11;100.00;96132.81;1035772;28;20018;-75
2023/09/09 01:44:18;;;;;;;16.13;12.50;;;;;;;14.15;100.00;96140.97;1035005;28;20036;-74
2023/09/09 01:44:49;;;;;;;15.68;11.75;;;;;;;14.14;100.00;96142.03;1035218;28;20084;-74
2023/09/09 01:45:19;;;;;;;14.90;11.20;;;;;;;14.14;100.00;96147.31;1030305;28;20019;-75
2023/09/09 01:45:50;;;;;;;15.68;11.10;;;;;;;14.12;100.00;96139.69;1030417;28;20562;-76
2023/09/09 01:46:20;;;;;;;17.77;11.75;;;;;;;14.11;100.00;96139.94;1030655;28;20033;-74
2023/09/09 01:46:51;;;;;;;16.75;11.95;;;;;;;14.10;100.00;96141.81;1026641;28;20039;-74
2023/09/09 01:47:21;;;;;;;16.38;12.35;;;;;;;14.09;100.00;96150.00;1026468;28;20447;-74
2023/09/09 01:47:52;;;;;;;35.83;12.55;;;;;;;14.05;100.00;96139.22;1030569;28;20034;-75
2023/09/09 01:48:22;;;;;;;52.33;15.05;;;;;;;14.04;100.00;96134.19;1029466;28;20027;-74
2023/09/09 01:48:53;;;;;;;19.13;12.00;;;;;;;14.17;100.00;96146.78;1029352;28;20028;-75
2023/09/09 01:49:23;;;;;;;19.00;11.55;;;;;;;14.13;100.00;96140.47;1030369;28;20030;-75
2023/09/09 01:49:54;;;;;;;16.90;11.75;;;;;;;14.13;100.00;96140.47;1025871;28;20023;-75
2023/09/09 01:50:24;;;;;;;17.80;12.65;;;;;;;14.14;100.00;96147.31;1025209;28;20050;-75
2023/09/09 01:50:55;;;;;;;26.52;12.15;;;;;;;14.11;100.00;96148.66;1030498;28;20030;-74
2023/09/09 01:51:26;;;;;;;17.80;12.13;;;;;;;14.10;100.00;96135.75;1030380;28;20030;-75
2023/09/09 01:51:56;;;;;;;22.77;12.65;;;;;;;14.12;100.00;96142.31;1036846;28;20026;-75
2023/09/09 01:52:27;;;;;;;21.30;12.50;;;;;;;14.11;100.00;96145.22;1034443;28;20465;-74
2023/09/09 01:52:58;;;;;;;23.65;12.40;;;;;;;14.10;100.00;96144.44;1034604;28;20037;-75
2023/09/09 01:53:28;;;;;;;21.67;11.98;;;;;;;14.11;100.00;96153.13;1031767;28;20447;-75
2023/09/09 01:53:59;;;;;;;18.63;12.20;;;;;;;14.10;100.00;96148.94;1031993;28;20034;-75
2023/09/09 01:54:29;;;;;;;17.95;11.60;;;;;;;14.12;100.00;96149.47;1030758;28;20451;-75
2023/09/09 01:55:00;;;;;;;17.35;11.30;;;;;;;14.11;100.00;96150.50;1026648;28;20030;-74
2023/09/09 01:55:30;;;;;;;17.13;11.15;;;;;;;14.10;100.00;96139.16;1027948;28;20037;-75
2023/09/09 01:56:01;;;;;;;16.90;12.35;;;;;;;14.12;100.00;96154.75;1022607;28;20056;-74
2023/09/09 01:56:31;;;;;;;15.43;11.50;;;;;;;14.10;100.00;96151.56;1030503;28;20112;-75
2023/09/09 01:57:02;;;;;;;16.98;11.65;;;;;;;14.09;100.00;96147.38;1034719;28;20430;-75
2023/09/09 01:57:33;;;;;;;17.13;11.32;;;;;;;14.09;100.00;96145.50;1038467;28;20029;-76
2023/09/09 01:58:03;;;;;;;16.23;11.75;;;;;;;14.06;100.00;96140.00;1030451;28;20660;-75
2023/09/09 01:58:33;;;;;;;18.40;11.52;;;;;;;14.02;100.00;96138.97;1034828;28;20694;-75
2023/09/09 01:59:04;;;;;;;16.10;11.25;;;;;;;14.06;100.00;96150.56;1022291;29;20046;-75
2023/09/09 01:59:34;;;;;;;15.63;11.43;;;;;;;14.06;100.00;96148.69;1029892;28;20144;-75
2023/09/09 02:00:09;;;;;;;16.52;11.30;;;;;;;14.04;100.00;96142.09;1030400;28;20066;-75
2023/09/09 02:00:39;;;;;;;14.88;11.07;;;;;;;14.04;100.00;96139.47;1022408;28;20504;-75
2023/09/09 02:01:10;;;;;;;17.17;11.48;;;;;;;14.03;100.00;96146.59;1023648;28;20031;-75
2023/09/09 02:01:40;;;;;;;15.32;11.15;;;;;;;14.02;100.00;96138.97;1031745;28;20034;-75
2023/09/09 02:02:15;;;;;;;18.40;11.75;;;;;;;14.03;100.00;96145.81;1034405;28;20033;-75
2023/09/09 02:02:46;;;;;;;15.20;11.20;;;;;;;13.99;100.00;96136.88;1038688;28;20030;-75
2023/09/09 02:03:16;;;;;;;17.02;11.07;;;;;;;13.94;100.00;96128.97;1026545;28;20027;-76
2023/09/09 02:03:47;;;;;;;14.43;9.93;;;;;;;14.00;100.00;96141.09;1027248;28;20034;-75
2023/09/09 02:04:18;;;;;;;17.90;11.63;;;;;;;14.00;100.00;96139.22;1026403;28;20037;-75
2023/09/09 02:04:48;;;;;;;15.90;11.07;;;;;;;13.98;100.00;96140.56;1030517;28;20041;-75
2023/09/09 02:05:19;;;;;;;15.75;10.70;;;;;;;13.96;100.00;96134.78;1038635;28;20384;-75
2023/09/09 02:05:49;;;;;;;19.60;11.65;;;;;;;14.01;100.00;96140.00;1030743;28;20037;-75
2023/09/09 02:06:19;;;;;;;19.17;11.18;;;;;;;13.95;100.00;96128.72;1032492;28;20038;-76
2023/09/09 02:06:50;;;;;;;18.90;12.10;;;;;;;14.02;100.00;96145.03;1030517;28;20023;-77
2023/09/09 02:07:21;;;;;;;16.83;11.48;;;;;;;13.99;100.00;96144.78;1026539;28;20023;-75
2023/09/09 02:07:51;;;;;;;15.80;11.07;;;;;;;13.95;100.00;96143.75;1027235;28;20598;-76
2023/09/09 02:08:21;;;;;;;20.50;11.68;;;;;;;13.94;100.00;96137.69;1030254;28;20038;-75
2023/09/09 02:08:52;;;;;;;19.45;11.13;;;;;;;13.94;100.00;96139.53;1034470;28;20429;-76
2023/09/09 02:09:22;;;;;;;16.50;11.52;;;;;;;13.85;100.00;96129.56;1034364;28;20026;-75
2023/09/09 02:09:53;;;;;;;17.23;11.07;;;;;;;13.85;100.00;96126.16;1033722;28;20060;-75
2023/09/09 02:10:23;;;;;;;17.35;11.65;;;;;;;13.89;100.00;96135.09;1038395;28;20632;-75
2023/09/09 02:10:54;;;;;;;14.82;11.05;;;;;;;13.88;100.00;96138.78;1034533;28;20034;-75
2023/09/09 02:11:24;;;;;;;17.85;12.10;;;;;;;13.85;100.00;96134.84;1038315;28;20048;-75
2023/09/09 02:11:55;;;;;;;17.33;11.98;;;;;;;13.83;100.00;96133.53;1034658;28;20110;-75
2023/09/09 02:12:28;;;;;;;15.75;11.70;;;;;;;13.84;100.00;96133.25;1030321;28;20031;-75
2023/09/09 02:12:58;;;;;;;17.10;11.43;;;;;;;13.84;100.00;96138.53;1030790;28;20057;-75
2023/09/09 02:13:29;;;;;;;20.63;12.98;;;;;;;13.83;100.00;96136.19;1034510;28;20021;-75
2023/09/09 02:13:59;;;;;;;16.20;11.23;;;;;;;13.83;100.00;96129.03;1034936;28;20380;-75
2023/09/09 02:14:30;;;;;;;16.98;11.32;;;;;;;13.82;100.00;96134.63;1034403;28;20029;-76
2023/09/09 02:15:01;;;;;;;14.25;10.98;;;;;;;13.83;100.00;96136.97;1030556;28;20038;-76
2023/09/09 02:15:31;;;;;;;15.13;12.13;;;;;;;13.84;100.00;96133.25;1034623;28;20029;-74
2023/09/09 02:16:05;;;;;;;19.55;12.05;;;;;;;13.82;100.00;96124.06;1030596;28;20449;-75
2023/09/09 02:16:36;;;;;;;18.90;12.45;;;;;;;13.84;100.00;96143.03;1026715;28;20034;-75
2023/09/09 02:17:07;;;;;;;20.00;12.88;;;;;;;13.82;100.00;96130.13;1030555;28;20038;-74
2023/09/09 02:17:37;;;;;;;14.98;10.55;;;;;;;13.84;100.00;96135.91;1023101;28;20058;-74
2023/09/09 02:18:08;;;;;;;15.98;11.80;;;;;;;13.85;100.00;96132.22;1028112;28;20093;-74
2023/09/09 02:18:39;;;;;;;15.88;10.85;;;;;;;13.86;100.00;96141.69;1038558;28;20041;-75
2023/09/09 02:19:10;;;;;;;16.67;11.40;;;;;;;13.87;100.00;96135.34;1034827;28;20458;-75
2023/09/09 02:19:40;;;;;;;16.17;12.23;;;;;;;13.86;100.00;96125.88;1033972;28;20034;-74
2023/09/09 02:20:11;;;;;;;15.82;11.90;;;;;;;13.87;100.00;96126.66;1030393;28;20034;-76
2023/09/09 02:20:41;;;;;;;15.15;11.73;;;;;;;13.87;100.00;96137.19;1025758;28;20105;-74